Bosporus — V2QY — position and weather

sailwx.info

Track history (hours):
 
Tides and Currents Weather Stations Pressure Air Temp Water Temp Dewpoint Dewpoint Depression Visibility Wind Speed Wind Dir Waves Ship Positions

Bosporus

Last reported at 2017-Dec-16 00:11 UTC. Time now 2017-Dec-17 19:44 UTC.
Position N 43°18' E 004°31'.

Length 100 m; draft 5.3 m.

Type: Cargo ship. MMSI: 304010802.

Date/timePositionNaut miles runAvg speedWind from/ knotsBaromVisibWave heightAir tempDewpointWater temp
2017-Dec-16 00:11N 43°18' E 004°31'1 6.0
2017-Dec-16 00:00N 43°18' E 004°32'3 6.1
2017-Dec-15 23:29N 43°18' E 004°36'3 6.7
2017-Dec-15 23:00N 43°17' E 004°41'3 6.5
2017-Dec-15 22:30N 43°17' E 004°45'7 6.5
2017-Dec-15 21:22N 43°18' E 004°55'3 7.4
2017-Dec-15 21:00N 43°20' E 004°58'5 9.2
2017-Dec-15 20:30N 43°24' E 004°55'2 0.3
2017-Dec-15 10:53N 43°26' E 004°53'0 0.8
2017-Dec-15 10:17N 43°25' E 004°53'2 4.7
2017-Dec-15 09:58N 43°25' E 004°55'0 0.3
2017-Dec-15 09:28N 43°25' E 004°55'0 0.1
2017-Dec-15 08:58N 43°25' E 004°55'0 0.0
2017-Dec-15 08:28N 43°25' E 004°55'0 0.1
2017-Dec-15 07:58N 43°25' E 004°55'0 0.0
2017-Dec-15 07:28N 43°25' E 004°55'0 0.0
2017-Dec-15 06:58N 43°25' E 004°55'0 0.0
2017-Dec-15 06:01N 43°25' E 004°55'0 0.1
2017-Dec-15 05:55N 43°25' E 004°55'0 0.0
2017-Dec-15 05:28N 43°25' E 004°55'0 0.0
2017-Dec-15 04:58N 43°25' E 004°55'0 0.0
2017-Dec-15 04:28N 43°25' E 004°55'0 0.0
2017-Dec-15 03:58N 43°25' E 004°55'0 0.0
2017-Dec-15 02:22N 43°25' E 004°55'0 0.0
2017-Dec-15 00:52N 43°25' E 004°55'0 0.0
2017-Dec-15 00:19N 43°25' E 004°55'9 1.5
2017-Dec-14 18:30N 43°17' E 005°01'4 8.2
2017-Dec-14 17:59N 43°13' E 005°03'1210.6
2017-Dec-14 16:53N 43°04' E 004°52'1211.3
2017-Dec-14 15:48N 42°56' E 004°40'16711.3
2017-Dec-14 01:04N 41°04' E 001°53'112.1
2017-Dec-14 01:00N 41°04' E 001°52'  
2017-Dec-09 19:28N 43°18' E 004°57'4 9.0
2017-Dec-09 19:00N 43°22' E 004°58'5 8.3
2017-Dec-09 18:27N 43°25' E 004°53'1 1.6
2017-Dec-09 17:58N 43°26' E 004°54'0 0.0
2017-Dec-09 04:13N 43°26' E 004°54'0 0.1
2017-Dec-09 03:58N 43°26' E 004°54'2 3.7
2017-Dec-09 03:30N 43°24' E 004°55'1 1.8
2017-Dec-09 03:00N 43°24' E 004°56'0 0.0
2017-Dec-09 02:30N 43°24' E 004°56'0 0.0
2017-Dec-09 02:00N 43°24' E 004°56'0 0.0
2017-Dec-09 01:30N 43°24' E 004°56'0 0.0
2017-Dec-09 01:00N 43°24' E 004°56'0 0.0
2017-Dec-09 00:30N 43°24' E 004°56'0 0.0
2017-Dec-09 00:00N 43°24' E 004°56'0 0.0
2017-Dec-08 23:30N 43°24' E 004°56'0 0.0
2017-Dec-08 23:00N 43°24' E 004°56'0 0.0
2017-Dec-08 22:30N 43°24' E 004°56'0 0.0
2017-Dec-08 22:00N 43°24' E 004°56'1 2.7
2017-Dec-08 21:30N 43°23' E 004°57'4 7.9
2017-Dec-08 21:00N 43°19' E 004°59'610.7
2017-Dec-08 20:29N 43°17' E 004°52'511.0
2017-Dec-08 20:00N 43°15' E 004°45'611.3
2017-Dec-08 19:30N 43°15' E 004°38'611.7
2017-Dec-08 18:59N 43°14' E 004°29'1411.4
2017-Dec-08 17:43N 43°12' E 004°10'  
Track history (hours):
 
Tides and Currents Weather Stations Pressure Air Temp Water Temp Dewpoint Dewpoint Depression Visibility Wind Speed Wind Dir Waves Ship Positions

Bosporus

Last reported at 2017-Dec-16 00:11 UTC. Time now 2017-Dec-17 19:44 UTC.
Position N 43°18' E 004°31'.

Length 100 m; draft 5.3 m.

Type: Cargo ship. MMSI: 304010802.

Date/timePositionNaut miles runAvg speedWind from/ knotsBaromVisibWave heightAir tempDewpointWater temp
2017-Dec-16 00:11N 43°18' E 004°31'1 6.0
2017-Dec-16 00:00N 43°18' E 004°32'3 6.1
2017-Dec-15 23:29N 43°18' E 004°36'3 6.7
2017-Dec-15 23:00N 43°17' E 004°41'3 6.5
2017-Dec-15 22:30N 43°17' E 004°45'7 6.5
2017-Dec-15 21:22N 43°18' E 004°55'3 7.4
2017-Dec-15 21:00N 43°20' E 004°58'5 9.2
2017-Dec-15 20:30N 43°24' E 004°55'2 0.3
2017-Dec-15 10:53N 43°26' E 004°53'0 0.8
2017-Dec-15 10:17N 43°25' E 004°53'2 4.7
2017-Dec-15 09:58N 43°25' E 004°55'0 0.3
2017-Dec-15 09:28N 43°25' E 004°55'0 0.1
2017-Dec-15 08:58N 43°25' E 004°55'0 0.0
2017-Dec-15 08:28N 43°25' E 004°55'0 0.1
2017-Dec-15 07:58N 43°25' E 004°55'0 0.0
2017-Dec-15 07:28N 43°25' E 004°55'0 0.0
2017-Dec-15 06:58N 43°25' E 004°55'0 0.0
2017-Dec-15 06:01N 43°25' E 004°55'0 0.1
2017-Dec-15 05:55N 43°25' E 004°55'0 0.0
2017-Dec-15 05:28N 43°25' E 004°55'0 0.0
2017-Dec-15 04:58N 43°25' E 004°55'0 0.0
2017-Dec-15 04:28N 43°25' E 004°55'0 0.0
2017-Dec-15 03:58N 43°25' E 004°55'0 0.0
2017-Dec-15 02:22N 43°25' E 004°55'0 0.0
2017-Dec-15 00:52N 43°25' E 004°55'0 0.0
2017-Dec-15 00:19N 43°25' E 004°55'9 1.5
2017-Dec-14 18:30N 43°17' E 005°01'4 8.2
2017-Dec-14 17:59N 43°13' E 005°03'1210.6
2017-Dec-14 16:53N 43°04' E 004°52'1211.3
2017-Dec-14 15:48N 42°56' E 004°40'16711.3
2017-Dec-14 01:04N 41°04' E 001°53'112.1
2017-Dec-14 01:00N 41°04' E 001°52'  
2017-Dec-09 19:28N 43°18' E 004°57'4 9.0
2017-Dec-09 19:00N 43°22' E 004°58'5 8.3
2017-Dec-09 18:27N 43°25' E 004°53'1 1.6
2017-Dec-09 17:58N 43°26' E 004°54'0 0.0
2017-Dec-09 04:13N 43°26' E 004°54'0 0.1
2017-Dec-09 03:58N 43°26' E 004°54'2 3.7
2017-Dec-09 03:30N 43°24' E 004°55'1 1.8
2017-Dec-09 03:00N 43°24' E 004°56'0 0.0
2017-Dec-09 02:30N 43°24' E 004°56'0 0.0
2017-Dec-09 02:00N 43°24' E 004°56'0 0.0
2017-Dec-09 01:30N 43°24' E 004°56'0 0.0
2017-Dec-09 01:00N 43°24' E 004°56'0 0.0
2017-Dec-09 00:30N 43°24' E 004°56'0 0.0
2017-Dec-09 00:00N 43°24' E 004°56'0 0.0
2017-Dec-08 23:30N 43°24' E 004°56'0 0.0
2017-Dec-08 23:00N 43°24' E 004°56'0 0.0
2017-Dec-08 22:30N 43°24' E 004°56'0 0.0
2017-Dec-08 22:00N 43°24' E 004°56'1 2.7
2017-Dec-08 21:30N 43°23' E 004°57'4 7.9
2017-Dec-08 21:00N 43°19' E 004°59'610.7
2017-Dec-08 20:29N 43°17' E 004°52'511.0
2017-Dec-08 20:00N 43°15' E 004°45'611.3
2017-Dec-08 19:30N 43°15' E 004°38'611.7
2017-Dec-08 18:59N 43°14' E 004°29'1411.4
2017-Dec-08 17:43N 43°12' E 004°10'  

Dump ship's entire track history